Time;durP1;ratioP1;P1;durP2;ratioP2;P2;SDS_P1;SDS_P2;PMS_P1;PMS_P2;Temp;Humidity;BMP_temperature;BMP_pressure;BME280_temperature;BME280_humidity;BME280_pressure;Samples;Min_cycle;Max_cycle;Signal;HPM_P1;HPM_P2
2023/01/12 00:01:19;;;;;;;8.82;1.75;;;8.70;99.90;;;;;;5094433;28;20120;-68
2023/01/12 00:03:44;;;;;;;11.75;1.30;;;8.80;99.90;;;;;;5095022;28;20089;-66
2023/01/12 00:06:10;;;;;;;4.90;1.17;;;8.70;99.90;;;;;;5095074;28;20131;-66
2023/01/12 00:08:36;;;;;;;8.05;1.17;;;8.70;99.90;;;;;;5095208;28;20048;-66
2023/01/12 00:11:02;;;;;;;8.73;2.28;;;8.80;99.90;;;;;;5093645;28;20024;-66
2023/01/12 00:13:31;;;;;;;5.75;1.45;;;8.80;99.90;;;;;;5094392;28;20032;-66
2023/01/12 00:18:46;;;;;;;6.90;1.10;;;8.80;99.90;;;;;;5095971;28;20046;-66
2023/01/12 00:21:12;;;;;;;9.77;1.83;;;8.80;99.90;;;;;;5094038;28;20056;-66
2023/01/12 00:23:38;;;;;;;15.60;1.77;;;8.80;99.90;;;;;;5094046;28;20048;-66
2023/01/12 00:26:07;;;;;;;10.23;1.65;;;8.70;99.90;;;;;;5095478;28;20044;-66
2023/01/12 00:28:33;;;;;;;6.70;1.55;;;8.70;99.90;;;;;;5094728;28;20016;-66
2023/01/12 00:31:00;;;;;;;6.97;1.23;;;8.70;99.90;;;;;;5095367;28;20471;-66
2023/01/12 00:33:26;;;;;;;8.40;1.30;;;8.70;99.90;;;;;;5094435;28;20028;-66
2023/01/12 00:35:51;;;;;;;9.07;1.63;;;8.70;99.90;;;;;;5093813;28;20028;-66
2023/01/12 00:38:17;;;;;;;14.70;1.55;;;8.70;99.90;;;;;;5094995;28;20024;-66
2023/01/12 00:40:42;;;;;;;6.47;1.40;;;8.70;99.90;;;;;;5095198;28;20031;-66
2023/01/12 00:45:52;;;;;;;2.58;1.10;;;8.70;99.90;;;;;;5094933;28;20031;-67
2023/01/12 00:48:18;;;;;;;9.27;1.77;;;8.70;99.90;;;;;;5093930;28;20020;-67
2023/01/12 00:50:45;;;;;;;9.27;1.50;;;8.70;99.90;;;;;;5094971;28;20118;-67
2023/01/12 00:53:11;;;;;;;10.05;1.48;;;8.70;99.90;;;;;;5094807;28;20020;-67
2023/01/12 00:55:37;;;;;;;14.38;1.80;;;8.70;99.90;;;;;;5093327;28;20024;-67
2023/01/12 00:58:02;;;;;;;4.38;1.23;;;8.70;99.90;;;;;;5094008;28;20027;-67
2023/01/12 01:00:28;;;;;;;12.27;1.52;;;8.70;99.90;;;;;;5093622;28;20028;-67
2023/01/12 01:02:53;;;;;;;10.50;1.95;;;8.60;99.90;;;;;;5094332;28;20047;-67
2023/01/12 01:05:19;;;;;;;9.82;1.67;;;8.60;99.90;;;;;;5094410;28;20036;-69
2023/01/12 01:07:46;;;;;;;9.13;1.65;;;8.60;99.90;;;;;;5093866;28;20024;-69
2023/01/12 01:10:12;;;;;;;12.02;1.50;;;8.60;99.90;;;;;;5094018;28;20054;-69
2023/01/12 01:12:37;;;;;;;5.30;1.00;;;8.60;99.90;;;;;;5094244;28;20036;-68
2023/01/12 01:15:03;;;;;;;8.98;1.50;;;8.70;99.90;;;;;;5093182;28;20024;-68
2023/01/12 01:17:29;;;;;;;5.97;1.10;;;8.70;99.90;;;;;;5094518;28;20028;-68
2023/01/12 01:19:54;;;;;;;10.32;1.70;;;8.70;99.90;;;;;;5094450;28;20028;-67
2023/01/12 01:22:20;;;;;;;6.70;1.23;;;8.70;99.90;;;;;;5094056;28;20372;-67
2023/01/12 01:24:49;;;;;;;6.68;1.52;;;8.70;99.90;;;;;;5094063;28;20024;-67
2023/01/12 01:27:14;;;;;;;7.88;1.48;;;8.70;99.90;;;;;;5094228;28;20103;-67
2023/01/12 01:29:40;;;;;;;6.65;1.30;;;8.80;99.90;;;;;;5092975;28;20118;-67
2023/01/12 01:32:06;;;;;;;19.83;1.63;;;8.70;99.90;;;;;;5094297;28;20063;-67
2023/01/12 01:34:32;;;;;;;6.72;1.65;;;8.70;99.90;;;;;;5092747;28;20091;-68
2023/01/12 01:36:58;;;;;;;7.40;1.38;;;8.60;99.90;;;;;;5094526;28;20058;-68
2023/01/12 01:39:24;;;;;;;11.57;1.75;;;8.60;99.90;;;;;;5093395;28;20114;-67
2023/01/12 01:41:49;;;;;;;15.63;1.98;;;8.50;99.90;;;;;;5092495;28;20391;-67
2023/01/12 01:44:30;;;;;;;10.20;1.63;;;8.60;99.90;;;;;;5093692;28;20021;-67
2023/01/12 01:47:23;;;;;;;8.32;1.95;;;8.50;99.90;;;;;;5092494;28;20020;-67
2023/01/12 01:49:53;;;;;;;9.00;1.17;;;8.40;99.90;;;;;;5093716;28;20020;-67
2023/01/12 01:52:35;;;;;;;13.13;1.30;;;8.40;99.90;;;;;;5094050;28;20069;-67
2023/01/12 01:55:06;;;;;;;11.60;1.90;;;8.30;99.90;;;;;;5092558;28;20024;-67
2023/01/12 01:57:38;;;;;;;7.65;1.27;;;8.30;99.90;;;;;;5092328;28;20062;-67
2023/01/12 02:00:05;;;;;;;6.60;1.00;;;8.30;99.90;;;;;;5093575;28;20024;-68
2023/01/12 02:02:31;;;;;;;12.38;1.63;;;8.30;99.90;;;;;;5093785;28;20024;-67
2023/01/12 02:04:56;;;;;;;10.35;1.52;;;8.30;99.90;;;;;;5092471;28;20028;-67
2023/01/12 02:07:22;;;;;;;7.13;1.60;;;8.20;99.90;;;;;;5093405;28;20027;-67
2023/01/12 02:09:48;;;;;;;12.77;1.63;;;8.20;99.90;;;;;;5092095;28;20073;-68
2023/01/12 02:17:57;;;;;;;17.08;1.75;;;8.20;99.90;;;;;;5093477;28;20028;-67
2023/01/12 02:20:53;;;;;;;12.07;1.90;;;8.20;99.90;;;;;;5092979;28;20020;-68
2023/01/12 02:24:14;;;;;;;5.35;1.20;;;8.20;99.90;;;;;;5093293;28;20045;-68
2023/01/12 02:27:12;;;;;;;9.23;1.33;;;8.30;99.90;;;;;;5091861;28;20028;-67
2023/01/12 02:30:15;;;;;;;12.77;1.58;;;8.30;99.90;;;;;;5091846;28;20020;-67
2023/01/12 02:33:19;;;;;;;16.48;1.77;;;8.30;99.90;;;;;;5094593;28;20024;-67
2023/01/12 02:36:09;;;;;;;16.88;1.67;;;8.30;99.90;;;;;;5049383;28;20038;-67
2023/01/12 02:39:14;;;;;;;7.53;1.00;;;8.30;99.90;;;;;;5096637;28;20066;-67
2023/01/12 02:45:11;;;;;;;6.93;1.20;;;8.30;99.90;;;;;;5097809;28;20047;-66
2023/01/12 02:47:43;;;;;;;11.07;1.65;;;8.30;99.90;;;;;;5097231;28;20095;-66
2023/01/12 02:50:12;;;;;;;12.43;1.33;;;8.40;99.90;;;;;;5097435;28;20142;-66
2023/01/12 02:52:42;;;;;;;9.18;1.55;;;8.40;99.90;;;;;;5095770;28;20031;-66
2023/01/12 02:55:09;;;;;;;16.00;1.85;;;8.40;99.90;;;;;;5096271;28;20024;-66
2023/01/12 02:57:36;;;;;;;6.55;1.85;;;8.40;99.90;;;;;;5095767;28;20047;-66
2023/01/12 03:00:04;;;;;;;17.48;2.25;;;8.50;99.90;;;;;;5095476;28;20475;-66
2023/01/12 03:02:30;;;;;;;10.82;1.63;;;8.40;99.90;;;;;;5095610;28;20020;-66
2023/01/12 03:04:55;;;;;;;11.15;1.98;;;8.50;99.90;;;;;;5097089;28;20443;-66
2023/01/12 03:07:52;;;;;;;5.18;1.23;;;8.50;99.90;;;;;;5096318;28;20056;-66
2023/01/12 03:10:29;;;;;;;8.82;1.17;;;8.40;99.90;;;;;;5093618;28;20032;-66
2023/01/12 03:12:58;;;;;;;11.32;1.25;;;8.50;99.90;;;;;;5096268;28;20039;-66
2023/01/12 03:15:25;;;;;;;10.50;1.40;;;8.50;99.90;;;;;;5096646;28;20035;-66
2023/01/12 03:17:57;;;;;;;8.32;1.30;;;8.50;99.90;;;;;;5096604;28;20107;-66
2023/01/12 03:20:23;;;;;;;;;;;8.60;99.90;;;;;;5095567;28;20024;-66
2023/01/12 03:22:52;;;;;;;8.48;2.20;;;8.60;99.90;;;;;;5095211;28;20003;-66
2023/01/12 03:25:19;;;;;;;11.60;1.65;;;8.60;99.90;;;;;;5096600;28;20021;-66
2023/01/12 03:27:49;;;;;;;4.38;0.90;;;8.60;99.90;;;;;;5095103;28;20020;-66
2023/01/12 03:30:40;;;;;;;7.68;1.60;;;8.60;99.90;;;;;;5095075;28;20036;-66
2023/01/12 03:33:07;;;;;;;11.48;1.10;;;8.60;99.90;;;;;;5094084;28;20085;-66
2023/01/12 03:35:44;;;;;;;5.05;1.55;;;8.60;99.90;;;;;;5094868;28;20475;-66
2023/01/12 03:38:24;;;;;;;14.60;1.90;;;8.60;99.90;;;;;;5096120;28;20054;-66
2023/01/12 03:41:02;;;;;;;8.20;1.55;;;8.70;99.90;;;;;;5094816;28;20020;-66
2023/01/12 03:43:33;;;;;;;7.15;1.38;;;8.70;99.90;;;;;;5094624;28;20111;-66
2023/01/12 03:46:22;;;;;;;10.33;1.43;;;8.60;99.90;;;;;;5094789;28;20021;-66
2023/01/12 03:48:56;;;;;;;8.77;1.33;;;8.60;99.90;;;;;;5094721;28;20024;-66
2023/01/12 03:51:26;;;;;;;7.43;1.30;;;8.60;99.90;;;;;;5096368;28;20024;-66
2023/01/12 03:53:53;;;;;;;9.43;1.40;;;8.60;99.90;;;;;;5094800;28;20024;-66
2023/01/12 03:56:22;;;;;;;11.77;1.40;;;8.60;99.90;;;;;;5096107;28;20024;-66
2023/01/12 03:58:48;;;;;;;7.13;1.23;;;8.60;99.90;;;;;;5095772;28;20026;-66
2023/01/12 04:01:14;;;;;;;8.82;2.40;;;8.60;99.90;;;;;;5094747;28;20123;-66
2023/01/12 04:03:40;;;;;;;7.35;1.58;;;8.60;99.90;;;;;;5095654;28;20059;-67
2023/01/12 04:06:07;;;;;;;5.80;1.00;;;8.60;99.90;;;;;;5094331;28;20023;-67
2023/01/12 04:08:33;;;;;;;9.82;1.52;;;8.60;99.90;;;;;;5095637;28;20413;-67
2023/01/12 04:10:58;;;;;;;12.82;1.63;;;8.60;99.90;;;;;;5095802;28;20099;-67
2023/01/12 04:13:24;;;;;;;12.63;1.50;;;8.70;99.90;;;;;;5095431;28;20103;-67
2023/01/12 04:15:50;;;;;;;5.20;1.10;;;8.60;99.90;;;;;;5095428;28;20023;-67
2023/01/12 04:18:15;;;;;;;14.43;2.33;;;8.70;99.90;;;;;;5095349;28;20035;-67
2023/01/12 04:20:41;;;;;;;6.75;0.85;;;8.60;99.90;;;;;;5095239;28;20111;-67
2023/01/12 04:23:07;;;;;;;10.77;1.52;;;8.70;99.90;;;;;;5094032;28;20098;-67
2023/01/12 04:25:33;;;;;;;7.68;1.88;;;8.70;99.90;;;;;;5094284;28;20021;-67
2023/01/12 04:28:02;;;;;;;7.35;1.30;;;8.70;99.90;;;;;;5093936;28;20169;-67
2023/01/12 04:30:32;;;;;;;5.75;1.20;;;8.70;99.90;;;;;;5095233;28;20016;-67
2023/01/12 04:32:59;;;;;;;6.68;1.30;;;8.70;99.90;;;;;;5093903;28;20066;-67
2023/01/12 04:35:26;;;;;;;7.18;1.70;;;8.70;99.90;;;;;;5095044;28;20095;-70
2023/01/12 04:37:52;;;;;;;3.45;1.10;;;8.70;99.90;;;;;;5093780;28;20030;-67
2023/01/12 04:40:19;;;;;;;7.30;1.10;;;8.80;99.90;;;;;;5094425;28;20070;-67
2023/01/12 04:43:00;;;;;;;9.43;1.08;;;8.80;99.90;;;;;;5094876;28;20490;-67
2023/01/12 04:45:34;;;;;;;13.02;2.45;;;8.80;99.90;;;;;;5095070;28;20106;-67
2023/01/12 04:48:09;;;;;;;10.45;1.00;;;8.80;99.90;;;;;;5095087;28;20028;-67
2023/01/12 04:50:37;;;;;;;9.00;2.05;;;8.90;99.90;;;;;;5094247;28;20021;-67
2023/01/12 04:53:03;;;;;;;5.43;1.02;;;8.90;99.90;;;;;;5093770;28;20027;-67
2023/01/12 04:55:29;;;;;;;6.00;1.17;;;8.90;99.90;;;;;;5094113;28;20055;-67
2023/01/12 04:57:56;;;;;;;10.63;1.50;;;8.90;99.90;;;;;;5093870;28;20059;-67
2023/01/12 05:00:21;;;;;;;6.65;1.15;;;8.90;99.90;;;;;;5093273;28;20024;-67
2023/01/12 05:02:47;;;;;;;10.38;1.33;;;9.00;99.90;;;;;;5093200;28;20032;-67
2023/01/12 05:05:13;;;;;;;11.02;1.45;;;9.00;99.90;;;;;;5093019;28;20506;-67
2023/01/12 05:10:21;;;;;;;5.68;1.20;;;9.00;99.90;;;;;;5093221;28;20022;-67
2023/01/12 05:10:24;;;;;;;7.60;1.00;;;9.00;99.90;;;;;;5094554;28;20028;-67
2023/01/12 05:12:49;;;;;;;6.88;1.30;;;9.00;99.90;;;;;;5093484;28;20027;-67
2023/01/12 05:15:15;;;;;;;7.22;0.88;;;8.90;99.90;;;;;;5093011;28;20482;-67
2023/01/12 05:17:40;;;;;;;4.82;1.10;;;9.00;99.90;;;;;;5094277;28;20082;-67
2023/01/12 05:20:07;;;;;;;4.78;0.90;;;8.90;99.90;;;;;;5093213;28;20028;-67
2023/01/12 05:22:33;;;;;;;5.47;0.82;;;8.90;99.90;;;;;;5093148;28;20020;-67
2023/01/12 05:24:58;;;;;;;3.80;1.00;;;8.90;99.90;;;;;;5094326;28;20089;-67
2023/01/12 05:27:24;;;;;;;5.43;0.75;;;9.00;99.90;;;;;;5094150;28;20031;-67
2023/01/12 05:29:51;;;;;;;6.75;1.15;;;9.00;99.90;;;;;;5093989;28;20028;-67
2023/01/12 05:32:17;;;;;;;5.55;1.25;;;8.90;99.90;;;;;;5092819;28;20395;-67
2023/01/12 05:34:42;;;;;;;1.95;0.80;;;8.90;99.90;;;;;;5092598;28;20031;-67
2023/01/12 05:37:08;;;;;;;3.92;0.90;;;8.90;99.90;;;;;;5092695;28;20024;-67
2023/01/12 05:39:33;;;;;;;3.13;0.80;;;8.90;99.90;;;;;;5094031;28;20107;-67
2023/01/12 05:44:43;;;;;;;4.75;0.88;;;9.00;99.90;;;;;;5093918;28;20090;-67
2023/01/12 05:47:08;;;;;;;5.75;0.80;;;9.00;99.90;;;;;;5093377;28;20020;-67
2023/01/12 05:49:34;;;;;;;6.65;0.57;;;8.90;99.90;;;;;;5094039;28;20028;-67
2023/01/12 05:51:59;;;;;;;6.15;0.70;;;9.00;99.90;;;;;;5092359;28;20024;-67
2023/01/12 05:54:25;;;;;;;2.17;0.47;;;9.00;99.90;;;;;;5092261;28;20080;-67
2023/01/12 05:56:51;;;;;;;7.38;0.90;;;9.00;99.90;;;;;;5092263;28;20129;-67
2023/01/12 05:59:17;;;;;;;3.45;0.60;;;9.00;99.90;;;;;;5093604;28;20020;-67
2023/01/12 06:01:42;;;;;;;0.70;0.57;;;9.00;99.90;;;;;;5093441;28;20028;-67
2023/01/12 06:04:09;;;;;;;1.60;0.73;;;9.00;99.90;;;;;;5115250;22;20040;-67
2023/01/12 06:06:35;;;;;;;3.88;0.70;;;9.10;99.90;;;;;;5092992;28;20059;-69
2023/01/12 06:09:01;;;;;;;4.30;1.40;;;9.10;99.90;;;;;;5092933;28;20047;-69
2023/01/12 06:14:11;;;;;;;3.60;0.60;;;9.00;99.90;;;;;;5093697;28;20031;-69
2023/01/12 06:16:38;;;;;;;9.05;0.88;;;9.00;99.90;;;;;;5093383;28;20028;-69
2023/01/12 06:19:04;;;;;;;7.03;1.20;;;9.00;99.90;;;;;;5093299;28;20020;-69
2023/01/12 06:21:32;;;;;;;4.45;0.77;;;9.00;99.90;;;;;;5091998;28;20131;-69
2023/01/12 06:23:57;;;;;;;5.35;1.00;;;8.90;99.90;;;;;;5108955;28;20115;-69
2023/01/12 06:26:23;;;;;;;2.45;0.60;;;8.90;99.90;;;;;;5093254;28;20055;-69
2023/01/12 06:28:48;;;;;;;9.32;1.05;;;8.90;99.90;;;;;;5093255;28;20024;-69
2023/01/12 06:31:14;;;;;;;3.70;0.73;;;8.90;99.90;;;;;;5093407;28;20124;-69
2023/01/12 06:33:39;;;;;;;3.90;0.75;;;8.80;99.90;;;;;;5093456;28;20020;-69
2023/01/12 06:36:05;;;;;;;4.20;0.63;;;8.80;99.90;;;;;;5092037;28;20027;-69
2023/01/12 06:38:32;;;;;;;5.90;0.77;;;8.80;99.90;;;;;;5092214;28;20031;-69
2023/01/12 06:42:27;;;;;;;2.33;0.75;;;8.70;99.90;;;;;;5091694;28;20031;-69
2023/01/12 06:43:56;;;;;;;5.85;0.73;;;8.70;99.90;;;;;;5092900;28;20154;-69
2023/01/12 06:46:22;;;;;;;3.28;0.60;;;8.60;99.90;;;;;;5093032;28;20055;-69
2023/01/12 06:48:47;;;;;;;2.42;0.90;;;8.60;99.90;;;;;;5093658;28;20044;-69
2023/01/12 06:51:13;;;;;;;9.48;1.20;;;8.50;99.90;;;;;;5093075;28;20111;-70
2023/01/12 06:53:38;;;;;;;3.58;1.17;;;8.50;99.90;;;;;;5093195;28;20081;-70
2023/01/12 06:56:04;;;;;;;10.18;0.90;;;8.50;99.90;;;;;;5093534;28;20020;-69
2023/01/12 06:58:30;;;;;;;5.00;1.10;;;8.40;99.90;;;;;;5093667;28;20035;-69
2023/01/12 07:01:02;;;;;;;1.80;0.90;;;8.40;99.90;;;;;;5093430;28;20114;-69
2023/01/12 07:03:28;;;;;;;6.38;1.15;;;8.30;99.90;;;;;;5092832;28;20028;-69
2023/01/12 07:05:58;;;;;;;5.93;1.42;;;8.40;99.90;;;;;;5091934;28;20086;-69
2023/01/12 07:08:23;;;;;;;5.13;1.15;;;8.30;99.90;;;;;;5091804;28;20032;-69
2023/01/12 07:10:49;;;;;;;5.07;0.90;;;8.40;99.90;;;;;;5091512;28;20024;-69
2023/01/12 07:13:14;;;;;;;3.05;1.00;;;8.40;99.90;;;;;;5091844;28;20028;-69
2023/01/12 07:15:40;;;;;;;3.78;0.90;;;8.30;99.90;;;;;;5091362;28;20043;-69
2023/01/12 07:18:05;;;;;;;6.18;1.02;;;8.30;99.90;;;;;;5091067;28;20032;-69
2023/01/12 07:20:32;;;;;;;2.33;0.70;;;8.20;99.90;;;;;;5096508;28;20075;-69
2023/01/12 07:22:58;;;;;;;4.28;1.02;;;8.20;99.90;;;;;;5096452;28;20043;-69
2023/01/12 07:25:24;;;;;;;6.50;1.33;;;8.20;99.90;;;;;;5095089;28;20024;-69
2023/01/12 07:27:51;;;;;;;2.83;0.73;;;8.20;99.90;;;;;;5096443;28;20055;-69
2023/01/12 07:30:19;;;;;;;6.38;0.80;;;8.20;99.90;;;;;;5096334;28;20052;-69
2023/01/12 07:32:44;;;;;;;13.15;1.70;;;8.20;99.90;;;;;;5096352;28;20017;-71
2023/01/12 07:35:10;;;;;;;5.90;0.90;;;8.20;99.90;;;;;;5094909;28;20031;-71
2023/01/12 07:37:35;;;;;;;4.82;0.80;;;8.10;99.90;;;;;;5095204;28;20024;-71
2023/01/12 07:40:01;;;;;;;5.13;1.00;;;8.10;99.90;;;;;;5096110;28;20103;-71
2023/01/12 07:42:26;;;;;;;6.88;1.23;;;8.10;99.90;;;;;;5095006;28;20024;-71
2023/01/12 07:44:52;;;;;;;4.32;0.52;;;8.10;99.90;;;;;;5095951;28;20020;-71
2023/01/12 07:47:18;;;;;;;3.22;0.77;;;8.00;99.90;;;;;;5096167;28;20048;-71
2023/01/12 07:49:43;;;;;;;3.97;0.82;;;8.00;99.90;;;;;;5095948;28;20024;-71
2023/01/12 07:52:13;;;;;;;6.25;1.10;;;8.00;99.90;;;;;;5095483;28;20074;-71
2023/01/12 07:54:41;;;;;;;5.55;0.60;;;8.00;99.90;;;;;;5094540;28;20020;-71
2023/01/12 07:57:10;;;;;;;3.10;0.70;;;8.00;99.90;;;;;;5096474;28;20024;-70
2023/01/12 07:59:36;;;;;;;3.35;0.80;;;8.00;99.90;;;;;;5095669;28;20024;-71
2023/01/12 08:02:01;;;;;;;6.18;1.02;;;8.00;99.90;;;;;;5095425;28;20524;-70
2023/01/12 08:04:27;;;;;;;5.32;1.23;;;8.00;99.90;;;;;;5095639;28;20035;-69
2023/01/12 08:06:52;;;;;;;6.32;0.80;;;8.00;99.90;;;;;;5095655;28;20035;-70
2023/01/12 08:09:18;;;;;;;1.95;0.50;;;8.00;99.90;;;;;;5094392;28;20027;-70
2023/01/12 08:11:43;;;;;;;3.35;0.60;;;8.00;99.90;;;;;;5094235;28;20031;-70
2023/01/12 08:14:24;;;;;;;6.72;0.70;;;8.00;99.90;;;;;;5095498;28;20024;-70
2023/01/12 08:16:52;;;;;;;5.20;0.68;;;8.00;99.90;;;;;;5095365;28;20028;-70
2023/01/12 08:19:25;;;;;;;2.25;0.82;;;8.00;99.90;;;;;;5094186;28;20082;-70
2023/01/12 08:21:57;;;;;;;6.85;1.40;;;8.10;99.90;;;;;;5094878;28;20020;-70
2023/01/12 08:24:31;;;;;;;3.67;0.88;;;8.10;99.90;;;;;;5096038;28;20020;-72
2023/01/12 08:26:58;;;;;;;5.95;0.75;;;8.10;99.90;;;;;;5094501;28;20055;-71
2023/01/12 08:29:31;;;;;;;4.13;0.63;;;8.10;99.90;;;;;;5095301;28;20024;-72
2023/01/12 08:32:04;;;;;;;4.32;0.73;;;8.00;99.90;;;;;;5093852;28;20115;-72
2023/01/12 08:34:30;;;;;;;10.30;0.93;;;8.10;99.90;;;;;;5095715;28;20024;-71
2023/01/12 08:36:58;;;;;;;7.72;0.70;;;8.10;99.90;;;;;;5094478;28;20035;-72
2023/01/12 08:39:24;;;;;;;1.73;0.57;;;8.10;99.90;;;;;;5094748;28;20031;-72
2023/01/12 08:41:49;;;;;;;2.33;0.55;;;8.10;99.90;;;;;;5094984;28;20024;-72
2023/01/12 08:47:39;;;;;;;2.53;1.33;;;8.00;99.90;;;;;;5094973;28;20046;-72
2023/01/12 08:50:06;;;;;;;5.82;0.70;;;8.00;99.90;;;;;;5094397;28;20016;-72
2023/01/12 08:52:33;;;;;;;2.03;1.20;;;8.10;99.90;;;;;;5093859;28;20043;-72
2023/01/12 08:54:59;;;;;;;4.05;0.57;;;8.10;99.90;;;;;;5093846;28;20084;-71
2023/01/12 08:57:24;;;;;;;1.98;0.70;;;8.10;99.90;;;;;;5093376;28;20016;-72
2023/01/12 08:59:50;;;;;;;2.15;0.50;;;8.10;99.90;;;;;;5094670;28;20101;-71
2023/01/12 09:02:15;;;;;;;3.70;0.77;;;8.10;99.90;;;;;;5093340;28;20395;-71
2023/01/12 09:04:41;;;;;;;4.07;0.77;;;8.10;99.90;;;;;;5093095;28;20028;-71
2023/01/12 09:07:07;;;;;;;4.57;0.85;;;8.20;99.90;;;;;;5093713;28;20024;-71
2023/01/12 09:09:33;;;;;;;2.67;0.60;;;8.20;99.90;;;;;;5093439;28;20069;-70
2023/01/12 09:11:59;;;;;;;5.53;1.02;;;8.20;99.90;;;;;;5094538;28;20055;-71
2023/01/12 09:14:25;;;;;;;5.93;0.60;;;8.20;99.90;;;;;;5094516;28;20039;-70
2023/01/12 09:16:51;;;;;;;2.35;0.52;;;8.20;99.90;;;;;;5093107;28;20024;-72
2023/01/12 09:19:16;;;;;;;3.70;0.55;;;8.20;99.90;;;;;;5094298;28;20024;-72
2023/01/12 09:21:42;;;;;;;5.80;0.82;;;8.20;99.90;;;;;;5092798;28;20024;-72
2023/01/12 09:24:09;;;;;;;3.17;0.95;;;8.30;99.90;;;;;;5093318;28;20069;-72
2023/01/12 09:26:40;;;;;;;1.50;0.60;;;8.20;99.90;;;;;;5095036;28;20130;-72
2023/01/12 09:29:06;;;;;;;1.70;0.65;;;8.20;99.90;;;;;;5094184;28;20021;-73
2023/01/12 09:31:33;;;;;;;3.35;0.77;;;8.30;99.90;;;;;;5092695;28;20031;-72
2023/01/12 09:33:59;;;;;;;6.18;0.70;;;8.30;99.90;;;;;;5094155;28;20414;-72
2023/01/12 09:36:27;;;;;;;4.30;1.00;;;8.30;99.90;;;;;;5093588;28;20035;-72
2023/01/12 09:38:54;;;;;;;7.05;0.85;;;8.30;99.90;;;;;;5093079;28;20032;-71
2023/01/12 09:47:33;;;;;;;4.80;0.73;;;8.50;99.90;;;;;;5094113;28;20069;-71
2023/01/12 09:50:30;;;;;;;1.90;0.47;;;8.50;99.90;;;;;;5092507;28;20054;-71
2023/01/12 09:53:30;;;;;;;4.63;0.80;;;8.50;99.90;;;;;;5011850;28;20528;-71
2023/01/12 09:56:14;;;;;;;3.85;0.95;;;8.50;99.90;;;;;;5008019;28;20117;-71
2023/01/12 09:59:09;;;;;;;3.97;0.60;;;8.50;99.90;;;;;;5011794;28;20116;-71
2023/01/12 10:01:36;;;;;;;3.72;0.98;;;8.50;99.90;;;;;;4995190;28;20026;-71
2023/01/12 10:04:02;;;;;;;5.15;0.95;;;8.50;99.90;;;;;;5011725;28;20061;-71
2023/01/12 10:06:28;;;;;;;0.60;0.52;;;8.60;99.90;;;;;;5011981;28;20022;-71
2023/01/12 10:09:13;;;;;;;1.98;0.60;;;8.60;99.90;;;;;;5011614;28;20022;-71
2023/01/12 10:12:07;;;;;;;1.83;0.68;;;8.60;99.90;;;;;;4995300;28;20045;-71
2023/01/12 10:14:33;;;;;;;3.75;0.98;;;8.70;99.90;;;;;;4995017;28;20503;-72
2023/01/12 10:17:07;;;;;;;1.55;0.80;;;8.70;99.90;;;;;;5011664;28;20037;-69
2023/01/12 10:19:52;;;;;;;6.22;0.50;;;8.70;99.90;;;;;;4994957;28;20025;-69
2023/01/12 10:22:36;;;;;;;6.95;0.82;;;8.70;99.90;;;;;;5011392;28;20045;-71
2023/01/12 10:25:33;;;;;;;5.38;0.65;;;8.70;99.90;;;;;;5011486;28;20033;-71
2023/01/12 10:28:22;;;;;;;5.03;0.50;;;8.70;99.90;;;;;;5011450;28;20396;-70
2023/01/12 10:30:48;;;;;;;2.22;0.43;;;8.70;99.90;;;;;;5093351;28;20028;-71
2023/01/12 10:33:20;;;;;;;0.70;0.60;;;8.70;99.90;;;;;;5092747;28;20024;-71
2023/01/12 10:35:59;;;;;;;4.88;0.70;;;8.80;99.90;;;;;;5091804;28;20032;-71
2023/01/12 10:38:33;;;;;;;4.70;0.40;;;8.80;99.90;;;;;;5092014;28;20115;-70
2023/01/12 10:41:05;;;;;;;1.42;0.57;;;8.80;99.90;;;;;;5091890;28;20024;-71
2023/01/12 10:43:32;;;;;;;2.55;0.60;;;8.80;99.90;;;;;;5093133;28;20020;-71
2023/01/12 10:46:20;;;;;;;3.47;0.40;;;8.80;99.90;;;;;;5092061;28;20081;-71
2023/01/12 10:48:48;;;;;;;1.42;0.30;;;8.80;99.90;;;;;;5093515;28;20069;-71
2023/01/12 10:51:27;;;;;;;5.88;0.82;;;8.80;99.90;;;;;;5091779;28;20044;-71
2023/01/12 10:54:10;;;;;;;1.60;0.40;;;8.90;99.90;;;;;;5094376;28;20024;-71
2023/01/12 10:56:42;;;;;;;5.57;1.00;;;8.90;99.90;;;;;;5096953;28;20038;-71
2023/01/12 10:59:11;;;;;;;7.13;0.73;;;8.90;99.90;;;;;;5095868;28;20028;-71
2023/01/12 11:02:11;;;;;;;1.98;0.38;;;8.90;99.90;;;;;;5096189;28;20028;-71
2023/01/12 11:04:52;;;;;;;4.93;0.50;;;9.00;99.90;;;;;;5095938;28;20028;-69
2023/01/12 11:07:20;;;;;;;3.50;0.70;;;9.00;99.90;;;;;;5096476;28;20017;-69
2023/01/12 11:09:47;;;;;;;2.08;0.30;;;9.00;99.90;;;;;;5095508;28;20095;-69
2023/01/12 11:12:34;;;;;;;2.10;0.43;;;9.00;99.90;;;;;;5096753;28;20107;-69
2023/01/12 11:15:08;;;;;;;3.45;0.70;;;9.10;99.90;;;;;;5095438;28;20034;-71
2023/01/12 11:17:50;;;;;;;2.72;0.70;;;9.10;99.90;;;;;;5096613;28;20028;-71
2023/01/12 11:20:31;;;;;;;;;;;9.10;99.90;;;;;;5097253;28;20019;-71
2023/01/12 11:23:01;;;;;;;1.88;0.50;;;9.10;99.90;;;;;;5096640;28;19904;-71
2023/01/12 11:25:33;;;;;;;1.17;0.85;;;9.10;99.90;;;;;;5097114;28;20024;-71
2023/01/12 11:28:23;;;;;;;7.43;1.00;;;9.10;99.90;;;;;;5095349;28;20063;-71
2023/01/12 11:30:55;;;;;;;6.47;0.77;;;9.20;99.90;;;;;;5096535;28;20028;-71
2023/01/12 11:33:29;;;;;;;3.80;0.50;;;9.20;99.90;;;;;;5096038;28;20050;-71
2023/01/12 11:36:18;;;;;;;3.92;0.75;;;9.10;99.90;;;;;;5096238;28;20024;-71
2023/01/12 11:38:46;;;;;;;2.65;0.60;;;9.10;99.90;;;;;;5096336;28;20024;-71
2023/01/12 11:41:28;;;;;;;3.63;0.68;;;9.10;99.90;;;;;;5094927;28;20111;-69
2023/01/12 11:44:15;;;;;;;0.85;0.30;;;9.10;99.90;;;;;;5094983;28;20161;-69
2023/01/12 11:47:06;;;;;;;4.30;0.60;;;9.20;99.90;;;;;;5096449;28;20043;-69
2023/01/12 11:49:43;;;;;;;2.93;0.87;;;9.30;99.90;;;;;;5095624;28;20032;-69
2023/01/12 11:52:12;;;;;;;4.57;0.82;;;9.30;99.90;;;;;;5096438;28;20024;-69
2023/01/12 11:54:39;;;;;;;8.45;0.60;;;9.30;99.90;;;;;;5095358;28;20021;-69
2023/01/12 11:57:13;;;;;;;2.65;0.65;;;9.30;99.90;;;;;;5094667;28;20028;-69
2023/01/12 11:59:49;;;;;;;2.63;0.73;;;9.30;99.90;;;;;;5094705;28;20027;-69
2023/01/12 12:02:36;;;;;;;1.35;0.32;;;9.40;99.90;;;;;;5095364;28;20020;-69
2023/01/12 12:05:13;;;;;;;2.92;0.50;;;9.40;99.90;;;;;;5095200;28;20024;-69
2023/01/12 12:08:03;;;;;;;3.78;0.73;;;9.40;99.90;;;;;;5095814;28;20024;-70
2023/01/12 12:10:50;;;;;;;3.78;0.70;;;9.40;99.90;;;;;;5094391;28;20081;-72
2023/01/12 12:13:33;;;;;;;1.95;0.32;;;9.30;99.90;;;;;;5094388;28;20029;-72
2023/01/12 12:16:13;;;;;;;1.40;0.50;;;9.30;99.90;;;;;;5094408;28;20135;-72
2023/01/12 12:19:08;;;;;;;2.17;0.60;;;9.30;99.90;;;;;;5094373;28;20074;-72
2023/01/12 12:21:48;;;;;;;3.60;0.40;;;9.40;99.90;;;;;;5095484;28;20039;-72
2023/01/12 12:24:53;;;;;;;2.00;0.68;;;9.40;99.90;;;;;;5094141;28;20024;-72
2023/01/12 12:27:44;;;;;;;1.55;0.40;;;9.40;99.90;;;;;;5039120;28;20043;-72
2023/01/12 12:30:24;;;;;;;1.48;0.30;;;9.40;99.90;;;;;;5094024;28;20028;-72
2023/01/12 12:32:56;;;;;;;2.83;0.68;;;9.30;99.90;;;;;;5094317;28;20020;-72
2023/01/12 12:35:47;;;;;;;4.65;0.77;;;9.40;99.90;;;;;;5095196;28;20020;-72
2023/01/12 12:38:22;;;;;;;4.28;0.70;;;9.40;99.90;;;;;;5094301;28;20024;-72
2023/01/12 12:47:30;;;;;;;;;;;9.40;99.90;;;;;;5095456;28;20035;-72
2023/01/12 12:49:57;;;;;;;1.27;0.30;;;9.40;99.90;;;;;;5093700;28;19968;-72
2023/01/12 12:52:26;;;;;;;5.85;0.90;;;9.40;99.90;;;;;;5094982;28;20023;-72
2023/01/12 12:54:56;;;;;;;8.85;0.70;;;9.40;99.90;;;;;;5093887;28;20030;-71
2023/01/12 12:57:21;;;;;;;2.70;0.40;;;9.40;99.90;;;;;;5093535;28;20024;-72
2023/01/12 12:59:51;;;;;;;1.05;0.30;;;9.50;99.90;;;;;;5094982;28;20024;-73
2023/01/12 13:02:51;;;;;;;1.73;0.32;;;9.40;99.90;;;;;;5093384;28;20028;-73
2023/01/12 13:05:39;;;;;;;1.42;0.40;;;9.50;99.90;;;;;;5093411;28;20081;-72
2023/01/12 13:08:16;;;;;;;2.33;0.60;;;9.50;99.90;;;;;;5093414;28;20072;-73
2023/01/12 13:10:51;;;;;;;0.50;0.28;;;9.50;99.90;;;;;;5094564;28;20024;-72
2023/01/12 13:13:32;;;;;;;2.28;0.30;;;9.50;99.90;;;;;;5094767;28;20027;-72
2023/01/12 13:16:19;;;;;;;3.17;0.55;;;9.50;99.90;;;;;;5094306;28;20031;-72
2023/01/12 13:18:47;;;;;;;4.45;0.50;;;9.50;99.90;;;;;;5093336;28;20020;-72
2023/01/12 13:21:25;;;;;;;1.65;0.30;;;9.50;99.90;;;;;;5093442;28;20024;-72
2023/01/12 13:24:10;;;;;;;1.85;0.40;;;9.50;99.90;;;;;;5094525;28;20026;-72
2023/01/12 13:26:39;;;;;;;1.05;0.52;;;9.50;99.90;;;;;;5094796;28;20012;-72
2023/01/12 13:29:26;;;;;;;3.50;0.40;;;9.50;99.90;;;;;;5093336;28;20046;-72
2023/01/12 13:32:29;;;;;;;1.27;0.30;;;9.50;99.90;;;;;;5093360;28;20024;-72
2023/01/12 13:34:55;;;;;;;5.45;0.80;;;9.40;99.90;;;;;;5093921;28;20035;-72
2023/01/12 13:37:49;;;;;;;1.65;0.43;;;9.50;99.90;;;;;;5093807;28;20111;-72
2023/01/12 13:40:21;;;;;;;2.08;0.45;;;9.40;99.90;;;;;;5083670;28;20131;-72
2023/01/12 13:45:32;;;;;;;0.80;0.60;;;9.40;99.90;;;;;;5094465;28;19911;-72
2023/01/12 13:47:58;;;;;;;0.65;0.20;;;9.50;99.90;;;;;;5093860;28;20024;-72
2023/01/12 13:50:26;;;;;;;0.73;0.30;;;9.50;99.90;;;;;;5094296;28;20034;-72
2023/01/12 13:53:02;;;;;;;1.38;0.65;;;9.50;99.90;;;;;;5093571;28;20016;-72
2023/01/12 13:55:31;;;;;;;1.50;0.40;;;9.50;99.90;;;;;;5093876;28;20016;-72
2023/01/12 13:58:15;;;;;;;1.05;0.50;;;9.50;99.90;;;;;;5092520;28;20024;-72